createdAt,value
2023-05-13T00:00:51.715Z,15.50
2023-05-13T00:06:00.241Z,16.79
2023-05-13T00:11:08.860Z,17.60
2023-05-13T00:16:17.999Z,16.09
2023-05-13T00:21:26.686Z,17.07
2023-05-13T00:26:35.675Z,20.85
2023-05-13T00:31:44.181Z,17.64
2023-05-13T00:36:53.062Z,18.24
2023-05-13T00:42:02.153Z,18.37
2023-05-13T00:47:11.164Z,17.63
2023-05-13T00:52:19.755Z,16.96
2023-05-13T00:57:28.673Z,21.39
2023-05-13T01:02:37.485Z,16.08
2023-05-13T01:07:46.552Z,15.78
2023-05-13T01:12:54.979Z,12.66
2023-05-13T01:18:03.520Z,14.95
2023-05-13T01:23:11.892Z,18.84
2023-05-13T01:28:20.340Z,16.24
2023-05-13T01:33:29.070Z,18.66
2023-05-13T01:38:37.971Z,17.72
2023-05-13T01:43:46.783Z,14.33
2023-05-13T01:48:55.744Z,13.90
2023-05-13T01:54:04.172Z,12.07
2023-05-13T01:59:13.002Z,12.27
2023-05-13T02:04:21.455Z,14.58
2023-05-13T02:09:30.591Z,16.37
2023-05-13T02:14:39.548Z,15.10
2023-05-13T02:19:48.670Z,14.56
2023-05-13T02:24:57.516Z,11.95
2023-05-13T02:30:06.527Z,14.45
2023-05-13T02:35:17.894Z,12.08
2023-05-13T02:40:16.435Z,13.66
2023-05-13T02:45:24.883Z,12.88
2023-05-13T02:50:33.934Z,15.60
2023-05-13T02:55:42.939Z,15.38
2023-05-13T03:00:51.741Z,14.63
2023-05-13T03:05:59.997Z,14.11
2023-05-13T03:11:08.692Z,18.76
2023-05-13T03:16:17.413Z,16.12
2023-05-13T03:21:26.822Z,14.47
2023-05-13T03:26:35.098Z,16.40
2023-05-13T03:31:44.022Z,16.32
2023-05-13T03:36:52.290Z,15.46
2023-05-13T03:42:01.472Z,17.82
2023-05-13T03:47:09.892Z,18.44
2023-05-13T03:52:18.921Z,16.96
2023-05-13T03:57:27.041Z,20.64
2023-05-13T04:02:37.439Z,21.84
2023-05-13T04:07:35.835Z,20.21
2023-05-13T04:12:48.174Z,22.69
2023-05-13T04:17:46.324Z,26.34
2023-05-13T04:22:55.766Z,25.14
2023-05-13T04:28:04.250Z,27.27
2023-05-13T04:33:13.284Z,35.07
2023-05-13T04:38:21.591Z,28.07
2023-05-13T04:43:30.633Z,27.20
2023-05-13T04:48:39.579Z,26.16
2023-05-13T04:53:48.294Z,20.09
2023-05-13T04:58:57.210Z,19.22
2023-05-13T05:04:06.740Z,16.13
2023-05-13T05:09:14.941Z,18.48
2023-05-13T05:14:27.024Z,14.70
2023-05-13T05:19:25.875Z,13.70
2023-05-13T05:24:34.510Z,11.36
2023-05-13T05:29:42.998Z,10.15
2023-05-13T05:34:51.553Z,10.93
2023-05-13T05:40:00.163Z,10.63
2023-05-13T05:45:08.982Z,9.71
2023-05-13T05:50:20.829Z,10.92
2023-05-13T05:55:21.471Z,8.83
2023-05-13T06:05:29.343Z,10.47
2023-05-13T06:10:37.906Z,13.20
2023-05-13T06:15:46.954Z,9.56
2023-05-13T06:20:56.634Z,9.99
2023-05-13T06:26:05.684Z,9.24
2023-05-13T06:31:14.457Z,7.76
2023-05-13T06:36:23.725Z,8.75
2023-05-13T06:41:32.559Z,6.76
2023-05-13T06:46:41.665Z,10.90
2023-05-13T06:51:50.422Z,11.16
2023-05-13T06:56:59.198Z,8.82
2023-05-13T07:02:07.683Z,8.43
2023-05-13T07:07:16.860Z,9.09
2023-05-13T07:12:25.566Z,8.72
2023-05-13T07:17:34.657Z,9.98
2023-05-13T07:22:43.265Z,10.92
2023-05-13T07:27:52.374Z,6.68
2023-05-13T07:33:00.869Z,7.87
2023-05-13T07:38:09.760Z,6.96
2023-05-13T07:43:18.403Z,7.54
2023-05-13T07:48:27.377Z,8.26
2023-05-13T07:53:36.391Z,8.32
2023-05-13T07:58:49.205Z,7.87
2023-05-13T08:03:48.010Z,6.51
2023-05-13T08:08:56.460Z,8.90
2023-05-13T08:14:04.766Z,6.00
2023-05-13T08:19:13.545Z,6.47
2023-05-13T08:24:22.039Z,7.88
2023-05-13T08:29:31.294Z,7.71
2023-05-13T08:34:40.352Z,6.76
2023-05-13T08:39:49.669Z,8.69
2023-05-13T08:44:58.505Z,7.21
2023-05-13T08:50:07.656Z,7.33
2023-05-13T08:55:16.203Z,8.23
2023-05-13T09:00:25.016Z,9.09
2023-05-13T09:05:35.675Z,6.19
2023-05-13T09:10:42.354Z,7.36
2023-05-13T09:15:51.302Z,7.17
2023-05-13T09:21:00.509Z,6.89
2023-05-13T09:26:09.355Z,7.32
2023-05-13T09:31:18.366Z,8.26
2023-05-13T09:36:27.283Z,6.23
2023-05-13T09:41:36.194Z,7.69
2023-05-13T09:46:45.044Z,6.06
2023-05-13T09:51:54.292Z,5.28
2023-05-13T09:57:02.998Z,7.61
2023-05-13T10:02:12.596Z,7.30
2023-05-13T10:07:21.396Z,7.71
2023-05-13T10:12:30.401Z,6.12
2023-05-13T10:17:39.316Z,5.69
2023-05-13T10:22:48.671Z,8.43
2023-05-13T10:27:57.476Z,6.51
2023-05-13T10:33:06.690Z,6.49
2023-05-13T10:38:15.304Z,8.08
2023-05-13T10:43:24.471Z,8.30
2023-05-13T10:48:33.104Z,7.19
2023-05-13T10:53:42.215Z,7.12
2023-05-13T10:58:51.016Z,6.18
2023-05-13T11:04:00.298Z,6.69
2023-05-13T11:09:08.807Z,10.00
2023-05-13T11:14:18.340Z,6.85
2023-05-13T11:19:27.167Z,8.12
2023-05-13T11:24:36.468Z,7.45
2023-05-13T11:29:45.094Z,8.95
2023-05-13T11:34:53.739Z,8.86
2023-05-13T11:40:02.266Z,8.53
2023-05-13T11:45:11.620Z,7.75
2023-05-13T11:50:20.724Z,8.72
2023-05-13T11:55:30.079Z,8.74
2023-05-13T12:00:38.706Z,10.72
2023-05-13T12:05:48.317Z,8.88
2023-05-13T12:10:57.018Z,7.51
2023-05-13T12:16:05.880Z,9.39
2023-05-13T12:21:14.389Z,7.60
2023-05-13T12:26:23.628Z,7.93
2023-05-13T12:31:32.218Z,8.67
2023-05-13T12:36:41.221Z,9.13
2023-05-13T12:41:50.280Z,10.11
2023-05-13T12:46:59.863Z,8.53
2023-05-13T12:52:08.316Z,6.39
2023-05-13T12:57:16.869Z,8.56
2023-05-13T13:02:25.572Z,10.11
2023-05-13T13:07:34.623Z,10.18
2023-05-13T13:12:43.301Z,9.05
2023-05-13T13:17:52.083Z,11.20
2023-05-13T13:23:00.951Z,8.31
2023-05-13T13:28:10.356Z,8.06
2023-05-13T13:33:18.881Z,9.57
2023-05-13T13:38:27.704Z,7.65
2023-05-13T13:43:36.191Z,9.33
2023-05-13T13:48:45.419Z,7.92
2023-05-13T13:53:54.250Z,8.80
2023-05-13T13:59:03.211Z,9.11
2023-05-13T14:04:11.428Z,6.59
2023-05-13T14:09:20.404Z,8.27
2023-05-13T14:14:28.834Z,6.97
2023-05-13T14:19:37.822Z,6.73
2023-05-13T14:24:46.235Z,8.15
2023-05-13T14:29:55.298Z,8.16
2023-05-13T14:35:04.245Z,6.01
2023-05-13T14:40:13.762Z,7.15
2023-05-13T14:45:22.153Z,6.28
2023-05-13T14:50:30.945Z,8.24
2023-05-13T14:55:39.264Z,7.31
2023-05-13T15:00:49.472Z,8.34
2023-05-13T15:05:47.844Z,7.80
2023-05-13T15:10:56.439Z,10.03
2023-05-13T15:16:04.827Z,10.52
2023-05-13T15:21:13.363Z,10.25
2023-05-13T15:26:22.067Z,12.99
2023-05-13T15:31:31.341Z,14.52
2023-05-13T15:36:40.718Z,12.99
2023-05-13T15:41:49.535Z,11.18
2023-05-13T15:46:58.347Z,9.16
2023-05-13T15:52:07.370Z,9.58
2023-05-13T15:57:15.710Z,11.63
2023-05-13T16:02:25.340Z,10.06
2023-05-13T16:07:34.277Z,7.39
2023-05-13T16:12:43.102Z,10.80
2023-05-13T16:17:51.947Z,8.10
2023-05-13T16:23:00.910Z,9.92
2023-05-13T16:28:09.137Z,8.93
2023-05-13T16:33:18.990Z,8.84
2023-05-13T16:38:27.815Z,7.75
2023-05-13T16:43:36.935Z,8.07
2023-05-13T16:48:45.717Z,5.49
2023-05-13T16:53:55.171Z,8.97
2023-05-13T16:59:03.707Z,7.25
2023-05-13T17:04:12.685Z,18.54
2023-05-13T17:09:21.157Z,8.15
2023-05-13T17:14:30.845Z,57.72
2023-05-13T17:19:39.536Z,10.58
2023-05-13T17:24:48.659Z,9.08
2023-05-13T17:29:56.872Z,8.03
2023-05-13T17:35:05.697Z,19.96
2023-05-13T17:40:14.438Z,6.81
2023-05-13T17:45:23.932Z,8.37
2023-05-13T17:50:32.521Z,10.67
2023-05-13T17:55:41.365Z,17.66
2023-05-13T18:00:50.849Z,12.63
2023-05-13T18:06:00.060Z,7.79
2023-05-13T18:11:09.215Z,11.88
2023-05-13T18:16:19.436Z,9.96
2023-05-13T18:21:29.304Z,8.96
2023-05-13T18:26:28.440Z,9.52
2023-05-13T18:31:37.824Z,12.02
2023-05-13T18:41:55.464Z,11.26
2023-05-13T18:47:04.318Z,9.28
2023-05-13T18:52:12.857Z,12.81
2023-05-13T18:57:22.104Z,11.81
2023-05-13T19:02:31.879Z,10.30
2023-05-13T19:07:40.439Z,9.34
2023-05-13T19:12:49.626Z,11.33
2023-05-13T19:17:59.059Z,12.10
2023-05-13T19:23:08.153Z,10.45
2023-05-13T19:28:17.783Z,9.46
2023-05-13T19:33:26.204Z,10.67
2023-05-13T19:38:35.125Z,11.10
2023-05-13T19:43:43.980Z,12.19
2023-05-13T19:48:53.086Z,12.31
2023-05-13T19:54:01.872Z,14.24
2023-05-13T19:59:11.142Z,10.98
2023-05-13T20:04:19.974Z,11.22
2023-05-13T20:09:29.137Z,11.55
2023-05-13T20:14:37.413Z,17.83
2023-05-13T20:19:45.925Z,13.40
2023-05-13T20:24:54.751Z,13.98
2023-05-13T20:30:03.728Z,18.71
2023-05-13T20:35:12.338Z,20.04
2023-05-13T20:40:21.438Z,18.24
2023-05-13T20:45:29.617Z,19.87
2023-05-13T20:50:38.343Z,16.45
2023-05-13T20:55:47.300Z,18.35
2023-05-13T21:00:56.294Z,15.45
2023-05-13T21:06:04.718Z,20.78
2023-05-13T21:11:14.179Z,18.72
2023-05-13T21:16:23.235Z,18.85
2023-05-13T21:21:31.854Z,19.53
2023-05-13T21:26:40.788Z,20.20
2023-05-13T21:31:50.039Z,17.46
2023-05-13T21:36:58.491Z,18.85
2023-05-13T21:42:07.374Z,18.91
2023-05-13T21:47:16.026Z,20.20
2023-05-13T21:52:25.214Z,21.64
2023-05-13T21:57:33.790Z,22.43
2023-05-13T22:02:43.197Z,18.58
2023-05-13T22:07:51.562Z,22.71
2023-05-13T22:13:00.443Z,20.14
2023-05-13T22:18:09.752Z,20.54
2023-05-13T22:23:18.364Z,22.39
2023-05-13T22:28:26.409Z,19.66
2023-05-13T22:33:35.001Z,17.25
2023-05-13T22:38:43.385Z,18.98
2023-05-13T22:43:52.173Z,20.55
2023-05-13T22:49:00.683Z,23.45
2023-05-13T22:54:09.740Z,22.83
2023-05-13T22:59:18.316Z,22.72
2023-05-13T23:04:27.239Z,25.57
2023-05-13T23:09:35.932Z,21.09
2023-05-13T23:14:45.431Z,22.32
2023-05-13T23:19:54.040Z,22.86
2023-05-13T23:25:02.475Z,20.29
2023-05-13T23:30:11.131Z,23.00
2023-05-13T23:35:20.395Z,25.11
2023-05-13T23:40:29.105Z,25.74
2023-05-13T23:45:37.936Z,23.31
2023-05-13T23:50:46.822Z,23.77
2023-05-13T23:55:55.952Z,26.98
